createdAt,value
2017-11-18T00:00:56.012Z,5.10
2017-11-18T00:03:29.419Z,5.20
2017-11-18T00:06:03.053Z,4.70
2017-11-18T00:08:36.726Z,4.87
2017-11-18T00:11:09.390Z,5.00
2017-11-18T00:13:42.745Z,5.13
2017-11-18T00:16:15.281Z,4.93
2017-11-18T00:18:47.814Z,5.60
2017-11-18T00:21:20.346Z,6.00
2017-11-18T00:23:52.908Z,7.03
2017-11-18T00:26:25.493Z,6.17
2017-11-18T00:28:58.065Z,5.47
2017-11-18T00:31:31.264Z,5.03
2017-11-18T00:34:04.183Z,6.20
2017-11-18T00:36:36.823Z,5.50
2017-11-18T00:39:09.434Z,5.83
2017-11-18T00:41:42.294Z,4.97
2017-11-18T00:44:16.007Z,5.83
2017-11-18T00:46:49.752Z,5.40
2017-11-18T00:49:22.376Z,6.00
2017-11-18T00:51:54.945Z,4.53
2017-11-18T00:54:27.510Z,5.37
2017-11-18T00:57:00.294Z,5.77
2017-11-18T00:59:33.177Z,5.67
2017-11-18T01:02:05.748Z,5.87
2017-11-18T01:04:38.419Z,4.87
2017-11-18T01:07:10.994Z,5.33
2017-11-18T01:09:44.315Z,5.53
2017-11-18T01:12:16.837Z,5.20
2017-11-18T01:14:49.375Z,5.17
2017-11-18T01:17:21.898Z,5.60
2017-11-18T01:19:54.443Z,5.37
2017-11-18T01:22:27.011Z,5.00
2017-11-18T01:24:59.684Z,5.40
2017-11-18T01:27:32.387Z,5.57
2017-11-18T01:30:05.803Z,5.30
2017-11-18T01:32:39.132Z,5.80
2017-11-18T01:35:11.708Z,5.77
2017-11-18T01:37:44.234Z,5.83
2017-11-18T01:40:16.803Z,6.20
2017-11-18T01:42:49.317Z,5.23
2017-11-18T01:45:22.648Z,5.40
2017-11-18T01:47:55.211Z,5.80
2017-11-18T01:50:27.823Z,6.63
2017-11-18T01:53:00.784Z,5.43
2017-11-18T01:55:34.538Z,6.07
2017-11-18T01:58:07.889Z,5.83
2017-11-18T02:00:40.440Z,5.70
2017-11-18T02:03:13.023Z,6.13
2017-11-18T02:05:45.659Z,5.30
2017-11-18T02:08:18.190Z,4.80
2017-11-18T02:10:50.752Z,5.60
2017-11-18T02:13:23.275Z,6.27
2017-11-18T02:15:55.816Z,5.60
2017-11-18T02:18:28.362Z,5.37
2017-11-18T02:21:01.260Z,6.03
2017-11-18T02:23:34.519Z,5.53
2017-11-18T02:26:07.267Z,5.07
2017-11-18T02:28:39.869Z,5.00
2017-11-18T02:31:12.489Z,5.57
2017-11-18T02:33:45.012Z,5.10
2017-11-18T02:36:17.568Z,5.70
2017-11-18T02:38:50.095Z,5.70
2017-11-18T02:41:23.400Z,5.53
2017-11-18T02:43:55.939Z,5.07
2017-11-18T02:46:28.601Z,4.97
2017-11-18T02:49:01.515Z,5.27
2017-11-18T02:51:34.167Z,5.30
2017-11-18T02:54:06.712Z,5.13
2017-11-18T02:56:39.279Z,5.70
2017-11-18T02:59:11.798Z,5.53
2017-11-18T03:01:44.354Z,5.20
2017-11-18T03:04:16.873Z,5.70
2017-11-18T03:06:50.178Z,5.93
2017-11-18T03:09:23.463Z,5.20
2017-11-18T03:11:56.812Z,5.77
2017-11-18T03:14:29.361Z,5.90
2017-11-18T03:17:01.967Z,5.67
2017-11-18T03:19:34.582Z,5.33
2017-11-18T03:22:07.155Z,5.30
2017-11-18T03:24:39.721Z,5.73
2017-11-18T03:27:12.342Z,5.33
2017-11-18T03:29:44.863Z,5.43
2017-11-18T03:32:17.435Z,5.83
2017-11-18T03:34:49.946Z,6.20
2017-11-18T03:37:23.252Z,5.77
2017-11-18T03:39:55.800Z,6.07
2017-11-18T03:42:28.374Z,6.83
2017-11-18T03:45:01.718Z,6.00
2017-11-18T03:47:34.299Z,6.10
2017-11-18T03:50:06.860Z,6.60
2017-11-18T03:52:39.471Z,5.53
2017-11-18T03:55:12.079Z,6.27
2017-11-18T03:57:44.634Z,6.23
2017-11-18T04:00:17.964Z,5.80
2017-11-18T04:02:51.391Z,6.00
2017-11-18T04:05:23.967Z,5.50
2017-11-18T04:07:56.562Z,6.70
2017-11-18T04:10:29.167Z,6.23
2017-11-18T04:13:01.718Z,6.30
2017-11-18T04:15:34.245Z,7.20
2017-11-18T04:18:06.829Z,6.90
2017-11-18T04:20:40.111Z,5.73
2017-11-18T04:23:13.431Z,7.07
2017-11-18T04:25:45.999Z,6.97
2017-11-18T04:28:18.583Z,7.33
2017-11-18T04:30:51.260Z,6.40
2017-11-18T04:33:23.937Z,6.30
2017-11-18T04:35:56.458Z,6.10
2017-11-18T04:38:29.863Z,5.97
2017-11-18T04:41:02.392Z,6.47
2017-11-18T04:43:34.951Z,6.13
2017-11-18T04:46:08.240Z,7.83
2017-11-18T04:48:41.568Z,6.63
2017-11-18T04:51:14.090Z,6.47
2017-11-18T04:53:47.476Z,7.20
2017-11-18T04:56:20.199Z,6.53
2017-11-18T04:58:52.880Z,6.13
2017-11-18T05:01:25.476Z,6.70
2017-11-18T05:03:58.117Z,6.23
2017-11-18T05:06:30.722Z,5.97
2017-11-18T05:09:03.258Z,6.87
2017-11-18T05:11:36.543Z,5.73
2017-11-18T05:14:09.110Z,6.50
2017-11-18T05:16:41.632Z,6.97
2017-11-18T05:19:14.168Z,6.17
2017-11-18T05:21:46.757Z,6.00
2017-11-18T05:24:19.504Z,6.70
2017-11-18T05:26:53.167Z,6.43
2017-11-18T05:29:25.792Z,6.33
2017-11-18T05:31:58.492Z,6.80
2017-11-18T05:34:31.194Z,7.47
2017-11-18T05:37:03.732Z,6.07
2017-11-18T05:39:36.299Z,6.70
2017-11-18T05:42:08.815Z,7.37
2017-11-18T05:44:42.126Z,7.63
2017-11-18T05:47:14.651Z,7.37
2017-11-18T05:49:47.212Z,7.90
2017-11-18T05:52:21.410Z,7.53
2017-11-18T05:54:54.193Z,7.37
2017-11-18T05:57:26.850Z,7.97
2017-11-18T05:59:59.546Z,6.73
2017-11-18T06:02:32.135Z,7.70
2017-11-18T06:05:04.682Z,7.17
2017-11-18T06:07:37.233Z,9.23
2017-11-18T06:10:10.532Z,7.40
2017-11-18T06:12:43.835Z,7.80
2017-11-18T06:15:16.381Z,7.40
2017-11-18T06:17:49.011Z,7.90
2017-11-18T06:20:21.886Z,7.10
2017-11-18T06:22:54.467Z,6.97
2017-11-18T06:25:27.172Z,7.73
2017-11-18T06:27:59.767Z,7.70
2017-11-18T06:30:32.391Z,8.37
2017-11-18T06:33:05.357Z,7.87
2017-11-18T06:35:38.116Z,7.57
2017-11-18T06:38:10.741Z,7.80
2017-11-18T06:40:43.432Z,6.87
2017-11-18T06:43:16.198Z,7.73
2017-11-18T06:45:49.011Z,7.43
2017-11-18T06:48:21.812Z,7.70
2017-11-18T06:50:55.183Z,7.37
2017-11-18T06:53:27.848Z,7.83
2017-11-18T06:56:00.456Z,7.33
2017-11-18T06:58:33.800Z,7.43
2017-11-18T07:01:06.375Z,8.13
2017-11-18T07:03:38.901Z,7.90
2017-11-18T07:06:11.496Z,8.33
2017-11-18T07:08:44.115Z,7.90
2017-11-18T07:11:16.806Z,8.33
2017-11-18T07:13:49.627Z,8.07
2017-11-18T07:16:22.455Z,7.97
2017-11-18T07:18:55.206Z,7.47
2017-11-18T07:21:28.689Z,7.47
2017-11-18T07:24:02.060Z,7.97
2017-11-18T07:26:34.644Z,8.80
2017-11-18T07:29:07.228Z,7.97
2017-11-18T07:31:40.591Z,8.30
2017-11-18T07:34:13.159Z,8.10
2017-11-18T07:36:45.919Z,7.27
2017-11-18T07:39:18.677Z,8.07
2017-11-18T07:41:52.011Z,7.23
2017-11-18T07:44:24.728Z,7.73
2017-11-18T07:46:57.459Z,7.60
2017-11-18T07:49:30.050Z,7.07
2017-11-18T07:52:02.707Z,7.70
2017-11-18T07:54:36.006Z,6.97
2017-11-18T07:57:08.581Z,7.73
2017-11-18T07:59:41.876Z,7.73
2017-11-18T08:02:14.508Z,8.30
2017-11-18T08:04:47.037Z,7.00
2017-11-18T08:07:19.612Z,6.83
2017-11-18T08:09:52.565Z,7.53
2017-11-18T08:12:25.219Z,7.60
2017-11-18T08:14:57.795Z,7.10
2017-11-18T08:17:30.404Z,6.73
2017-11-18T08:20:02.940Z,6.93
2017-11-18T08:22:35.484Z,7.40
2017-11-18T08:25:08.011Z,7.20
2017-11-18T08:27:40.561Z,7.07
2017-11-18T08:30:13.088Z,7.47
2017-11-18T08:32:46.412Z,6.30
2017-11-18T08:35:19.068Z,6.00
2017-11-18T08:37:51.867Z,7.07
2017-11-18T08:40:24.643Z,7.00
2017-11-18T08:42:57.289Z,6.53
2017-11-18T08:45:29.920Z,7.23
2017-11-18T08:48:02.467Z,7.13
2017-11-18T08:50:35.753Z,6.83
2017-11-18T08:53:09.062Z,6.23
2017-11-18T08:55:41.608Z,6.73
2017-11-18T08:58:14.968Z,6.33
2017-11-18T09:00:47.550Z,6.40
2017-11-18T09:03:20.302Z,7.23
2017-11-18T09:05:52.936Z,6.90
2017-11-18T09:08:25.514Z,7.67
2017-11-18T09:10:58.077Z,5.97
2017-11-18T09:13:30.650Z,6.20
2017-11-18T09:16:03.216Z,6.20
2017-11-18T09:18:35.766Z,6.10
2017-11-18T09:21:08.296Z,6.20
2017-11-18T09:23:40.864Z,6.23
2017-11-18T09:26:13.395Z,5.80
2017-11-18T09:28:45.939Z,6.33
2017-11-18T09:31:19.380Z,5.63
2017-11-18T09:33:52.102Z,6.17
2017-11-18T09:36:24.723Z,6.23
2017-11-18T09:38:57.354Z,6.00
2017-11-18T09:41:30.312Z,6.20
2017-11-18T09:44:03.365Z,5.97
2017-11-18T09:46:35.975Z,6.87
2017-11-18T09:49:09.308Z,6.57
2017-11-18T09:51:42.588Z,5.43
2017-11-18T09:54:15.249Z,5.23
2017-11-18T09:56:47.751Z,5.13
2017-11-18T09:59:21.930Z,5.10
2017-11-18T10:01:55.603Z,5.23
2017-11-18T10:04:29.777Z,5.37
2017-11-18T10:07:03.176Z,4.80
2017-11-18T10:09:36.510Z,5.27
2017-11-18T10:12:09.018Z,4.90
2017-11-18T10:14:41.562Z,5.73
2017-11-18T10:17:14.101Z,5.07
2017-11-18T10:19:46.669Z,4.97
2017-11-18T10:22:20.125Z,5.37
2017-11-18T10:24:54.220Z,5.67
2017-11-18T10:27:28.201Z,5.60
2017-11-18T10:30:01.576Z,5.20
2017-11-18T10:32:34.143Z,5.57
2017-11-18T10:35:06.666Z,6.07
2017-11-18T10:37:39.167Z,4.70
2017-11-18T10:40:12.470Z,5.47
2017-11-18T10:42:45.747Z,5.17
2017-11-18T10:45:18.406Z,5.30
2017-11-18T10:47:51.376Z,4.73
2017-11-18T10:50:25.155Z,5.70
2017-11-18T10:52:58.156Z,5.23
2017-11-18T10:55:31.069Z,5.47
2017-11-18T10:58:03.907Z,5.47
2017-11-18T11:00:36.433Z,5.77
2017-11-18T11:03:08.938Z,5.07
2017-11-18T11:05:41.478Z,5.63
2017-11-18T11:08:13.987Z,5.00
2017-11-18T11:10:46.834Z,5.07
2017-11-18T11:13:19.736Z,5.07
2017-11-18T11:15:53.000Z,4.60
2017-11-18T11:18:26.508Z,4.37
2017-11-18T11:20:59.447Z,4.70
2017-11-18T11:23:32.813Z,4.70
2017-11-18T11:26:05.434Z,4.20
2017-11-18T11:28:37.933Z,4.90
2017-11-18T11:31:11.252Z,4.87
2017-11-18T11:33:44.523Z,4.83
2017-11-18T11:36:17.260Z,4.87
2017-11-18T11:38:51.384Z,5.77
2017-11-18T11:41:24.583Z,5.17
2017-11-18T11:43:57.926Z,5.33
2017-11-18T11:46:31.200Z,5.03
2017-11-18T11:49:04.135Z,5.87
2017-11-18T11:51:36.671Z,5.50
2017-11-18T11:54:09.942Z,5.57
2017-11-18T11:56:42.513Z,6.30
2017-11-18T11:59:15.021Z,5.20
2017-11-18T12:01:49.166Z,5.70
2017-11-18T12:04:23.212Z,5.90
2017-11-18T12:06:56.216Z,6.13
2017-11-18T12:09:29.428Z,6.50
2017-11-18T12:12:02.542Z,6.73
2017-11-18T12:14:36.138Z,6.77
2017-11-18T12:17:09.442Z,6.63
2017-11-18T12:19:42.780Z,7.43
2017-11-18T12:22:15.568Z,8.63
2017-11-18T12:24:48.569Z,7.50
2017-11-18T12:27:22.779Z,7.80
2017-11-18T12:29:56.318Z,7.90
2017-11-18T12:32:31.736Z,8.30
2017-11-18T12:35:04.291Z,8.63
2017-11-18T12:37:36.842Z,8.33
2017-11-18T12:40:09.351Z,8.63
2017-11-18T12:42:41.890Z,9.57
2017-11-18T12:45:15.321Z,8.63
2017-11-18T12:47:48.075Z,9.27
2017-11-18T12:50:21.530Z,10.37
2017-11-18T12:52:54.296Z,10.80
2017-11-18T12:55:27.048Z,10.20
2017-11-18T12:58:00.152Z,10.53
2017-11-18T13:00:33.894Z,10.83
2017-11-18T13:03:06.429Z,10.20
2017-11-18T13:05:38.942Z,9.00
2017-11-18T13:08:11.507Z,11.40
2017-11-18T13:10:44.030Z,10.60
2017-11-18T13:13:16.562Z,11.23
2017-11-18T13:15:50.562Z,11.40
2017-11-18T13:18:23.740Z,10.17
2017-11-18T13:20:57.558Z,9.70
2017-11-18T13:23:31.671Z,10.20
2017-11-18T13:26:04.355Z,4.10
2017-11-18T13:28:36.902Z,2.10
2017-11-18T13:31:09.407Z,1.60
2017-11-18T13:33:42.725Z,1.53
2017-11-18T13:36:15.279Z,1.27
2017-11-18T13:38:48.619Z,1.40
2017-11-18T13:41:22.746Z,1.50
2017-11-18T13:43:58.048Z,1.30
2017-11-18T13:46:31.927Z,1.47
2017-11-18T13:49:04.731Z,1.63
2017-11-18T13:51:37.462Z,1.80
2017-11-18T13:54:10.015Z,1.57
2017-11-18T13:56:42.763Z,1.30
2017-11-18T13:59:15.505Z,1.27
2017-11-18T14:01:48.056Z,1.23
2017-11-18T14:04:21.181Z,1.30
2017-11-18T14:06:53.745Z,1.30
2017-11-18T14:09:26.395Z,1.23
2017-11-18T14:11:58.950Z,1.50
2017-11-18T14:14:31.503Z,2.53
2017-11-18T14:17:04.039Z,3.57
2017-11-18T14:19:36.636Z,2.30
2017-11-18T14:22:09.301Z,2.17
2017-11-18T14:24:41.863Z,2.37
2017-11-18T14:27:14.428Z,4.17
2017-11-18T14:29:47.785Z,3.20
2017-11-18T14:32:20.314Z,2.70
2017-11-18T14:34:52.860Z,3.53
2017-11-18T14:37:26.151Z,3.33
2017-11-18T14:39:58.705Z,3.07
2017-11-18T14:42:31.234Z,7.67
2017-11-18T14:45:03.799Z,3.70
2017-11-18T14:47:36.540Z,2.80
2017-11-18T14:50:09.273Z,2.40
2017-11-18T14:52:41.971Z,2.80
2017-11-18T14:55:14.670Z,3.87
2017-11-18T14:57:47.223Z,3.53
2017-11-18T15:00:19.768Z,2.90
2017-11-18T15:02:53.055Z,2.60
2017-11-18T15:05:26.404Z,1.87
2017-11-18T15:07:58.963Z,2.60
2017-11-18T15:10:31.527Z,2.67
2017-11-18T15:13:04.093Z,2.40
2017-11-18T15:15:45.006Z,2.20
2017-11-18T15:18:23.188Z,3.33
2017-11-18T15:21:01.500Z,2.30
2017-11-18T15:26:46.972Z,2.00
2017-11-18T15:29:40.660Z,1.90
2017-11-18T15:32:20.156Z,1.87
2017-11-18T15:38:17.465Z,1.77
2017-11-18T15:40:50.033Z,1.77
2017-11-18T15:43:25.953Z,1.97
2017-11-18T15:46:01.231Z,1.90
2017-11-18T15:48:39.476Z,2.90
2017-11-18T15:51:15.038Z,3.97
2017-11-18T15:53:53.413Z,2.77
2017-11-18T15:56:32.670Z,2.30
2017-11-18T15:59:09.183Z,2.00
2017-11-18T16:01:59.819Z,2.20
2017-11-18T16:04:35.948Z,2.03
2017-11-18T16:07:13.113Z,1.70
2017-11-18T16:09:45.721Z,2.23
2017-11-18T16:12:18.283Z,2.33
2017-11-18T16:14:50.796Z,2.20
2017-11-18T16:17:23.336Z,2.10
2017-11-18T16:19:57.552Z,2.10
2017-11-18T16:22:30.890Z,2.07
2017-11-18T16:25:03.426Z,2.03
2017-11-18T16:27:37.049Z,2.33
2017-11-18T16:30:09.673Z,2.10
2017-11-18T16:32:42.264Z,2.00
2017-11-18T16:35:14.829Z,1.70
2017-11-18T16:37:47.840Z,1.70
2017-11-18T16:40:21.124Z,1.40
2017-11-18T16:42:53.851Z,2.00
2017-11-18T16:45:26.376Z,1.73
2017-11-18T16:47:58.926Z,1.80
2017-11-18T16:50:31.576Z,1.80
2017-11-18T16:53:04.170Z,1.90
2017-11-18T16:55:36.804Z,2.00
2017-11-18T16:58:10.188Z,2.30
2017-11-18T17:00:42.778Z,2.50
2017-11-18T17:03:16.152Z,2.20
2017-11-18T17:05:48.676Z,2.80
2017-11-18T17:08:21.225Z,6.80
2017-11-18T17:10:54.512Z,5.30
2017-11-18T17:13:27.827Z,4.47
2017-11-18T17:16:00.357Z,3.40
2017-11-18T17:18:33.733Z,3.30
2017-11-18T17:21:06.399Z,3.10
2017-11-18T17:23:39.118Z,3.30
2017-11-18T17:26:11.693Z,3.47
2017-11-18T17:28:44.354Z,3.30
2017-11-18T17:31:17.039Z,3.53
2017-11-18T17:33:49.603Z,3.43
2017-11-18T17:36:22.125Z,3.47
2017-11-18T17:38:55.471Z,3.80
2017-11-18T17:41:28.768Z,3.50
2017-11-18T17:44:01.307Z,3.70
2017-11-18T17:46:33.866Z,3.77
2017-11-18T17:49:07.434Z,3.97
2017-11-18T17:51:40.306Z,3.80
2017-11-18T17:54:12.900Z,4.17
2017-11-18T17:56:45.524Z,3.90
2017-11-18T17:59:18.128Z,4.17
2017-11-18T18:01:50.650Z,4.50
2017-11-18T18:04:23.955Z,4.23
2017-11-18T18:06:57.247Z,4.53
2017-11-18T18:09:29.791Z,4.37
2017-11-18T18:12:02.392Z,4.90
2017-11-18T18:14:35.951Z,4.37
2017-11-18T18:17:08.567Z,4.63
2017-11-18T18:19:41.218Z,5.33
2017-11-18T18:22:13.815Z,5.30
2017-11-18T18:24:47.194Z,4.93
2017-11-18T18:27:20.517Z,5.27
2017-11-18T18:29:53.839Z,6.33
2017-11-18T18:32:26.372Z,6.10
2017-11-18T18:34:59.693Z,5.13
2017-11-18T18:37:32.233Z,6.93
2017-11-18T18:40:04.869Z,5.43
2017-11-18T18:42:37.530Z,5.93
2017-11-18T18:45:10.232Z,5.57
2017-11-18T18:47:42.775Z,5.00
2017-11-18T18:50:15.408Z,5.63
2017-11-18T18:52:48.015Z,5.23
2017-11-18T18:55:21.552Z,4.97
2017-11-18T18:57:54.075Z,5.10
2017-11-18T19:00:26.619Z,5.03
2017-11-18T19:02:59.135Z,4.00
2017-11-18T19:05:31.672Z,4.67
2017-11-18T19:08:04.296Z,4.90
2017-11-18T19:10:37.790Z,5.20
2017-11-18T19:13:11.174Z,5.07
2017-11-18T19:15:43.792Z,4.43
2017-11-18T19:18:17.232Z,4.83
2017-11-18T19:20:49.787Z,4.93
2017-11-18T19:23:22.329Z,5.00
2017-11-18T19:25:54.884Z,4.70
2017-11-18T19:28:27.412Z,4.67
2017-11-18T19:30:59.966Z,5.70
2017-11-18T19:33:32.497Z,4.93
2017-11-18T19:36:05.456Z,5.07
2017-11-18T19:38:38.136Z,5.70
2017-11-18T19:41:10.897Z,5.20
2017-11-18T19:43:43.452Z,4.30
2017-11-18T19:46:16.108Z,4.17
2017-11-18T19:48:49.420Z,4.33
2017-11-18T19:51:21.983Z,3.80
2017-11-18T19:53:55.279Z,5.13
2017-11-18T19:56:28.602Z,4.00
2017-11-18T19:59:01.127Z,4.43
2017-11-18T20:01:33.701Z,4.37
2017-11-18T20:04:06.878Z,4.47
2017-11-18T20:06:39.546Z,4.60
2017-11-18T20:09:12.153Z,3.63
2017-11-18T20:11:44.741Z,4.00
2017-11-18T20:14:22.151Z,4.27
2017-11-18T20:16:54.723Z,4.17
2017-11-18T20:19:28.020Z,3.90
2017-11-18T20:22:00.754Z,4.17
2017-11-18T20:24:34.349Z,4.70
2017-11-18T20:27:06.996Z,4.27
2017-11-18T20:29:39.585Z,4.33
2017-11-18T20:32:12.171Z,4.57
2017-11-18T20:34:44.698Z,4.80
2017-11-18T20:37:18.010Z,4.33
2017-11-18T20:39:50.553Z,4.67
2017-11-18T20:42:26.114Z,4.13
2017-11-18T20:44:59.408Z,4.70
2017-11-18T20:47:32.841Z,4.40
2017-11-18T20:50:05.485Z,4.37
2017-11-18T20:52:38.828Z,5.53
2017-11-18T20:55:11.378Z,15.77
2017-11-18T20:57:43.970Z,9.77
2017-11-18T21:00:16.519Z,12.03
2017-11-18T21:02:49.080Z,9.03
2017-11-18T21:05:22.377Z,6.63
2017-11-18T21:07:54.936Z,6.10
2017-11-18T21:10:27.470Z,5.33
2017-11-18T21:13:00.059Z,5.20
2017-11-18T21:15:32.600Z,4.90
2017-11-18T21:18:05.197Z,5.83
2017-11-18T21:20:37.777Z,4.43
2017-11-18T21:23:10.377Z,5.60
2017-11-18T21:25:42.955Z,5.70
2017-11-18T21:28:15.512Z,6.17
2017-11-18T21:30:48.057Z,6.13
2017-11-18T21:33:20.644Z,6.13
2017-11-18T21:35:53.397Z,6.30
2017-11-18T21:38:25.983Z,6.80
2017-11-18T21:40:59.285Z,6.17
2017-11-18T21:43:31.944Z,6.27
2017-11-18T21:46:04.587Z,7.37
2017-11-18T21:48:37.233Z,7.60
2017-11-18T21:51:09.874Z,6.97
2017-11-18T21:53:43.195Z,7.03
2017-11-18T21:56:15.789Z,7.00
2017-11-18T21:58:48.342Z,6.60
2017-11-18T22:01:20.943Z,7.00
2017-11-18T22:03:53.566Z,7.10
2017-11-18T22:06:26.096Z,8.57
2017-11-18T22:08:58.643Z,8.27
2017-11-18T22:11:31.942Z,7.70
2017-11-18T22:14:04.508Z,8.13
2017-11-18T22:16:37.099Z,8.10
2017-11-18T22:19:09.713Z,7.43
2017-11-18T22:21:42.331Z,8.87
2017-11-18T22:24:15.711Z,8.77
2017-11-18T22:26:48.236Z,8.97
2017-11-18T22:29:20.846Z,8.53
2017-11-18T22:31:53.368Z,7.77
2017-11-18T22:34:25.989Z,7.30
2017-11-18T22:36:58.527Z,7.60
2017-11-18T22:39:31.095Z,7.50
2017-11-18T22:42:04.526Z,7.23
2017-11-18T22:44:37.102Z,6.70
2017-11-18T22:47:09.697Z,6.67
2017-11-18T22:49:42.284Z,6.13
2017-11-18T22:52:14.863Z,6.33
2017-11-18T22:54:47.437Z,5.23
2017-11-18T22:57:19.988Z,5.03
2017-11-18T22:59:52.598Z,5.77
2017-11-18T23:02:26.145Z,6.13
2017-11-18T23:04:58.756Z,5.80
2017-11-18T23:07:31.411Z,5.73
2017-11-18T23:10:05.670Z,5.73
2017-11-18T23:12:38.497Z,6.70
2017-11-18T23:15:11.136Z,6.00
2017-11-18T23:17:44.505Z,5.67
2017-11-18T23:20:17.096Z,5.97
2017-11-18T23:22:50.404Z,5.87
2017-11-18T23:25:23.715Z,5.63
2017-11-18T23:27:57.001Z,5.07
2017-11-18T23:30:30.315Z,4.77
2017-11-18T23:33:03.916Z,3.83
2017-11-18T23:35:36.642Z,4.70
2017-11-18T23:38:09.224Z,4.30
2017-11-18T23:40:41.828Z,4.47
2017-11-18T23:43:15.167Z,3.70
2017-11-18T23:45:47.788Z,3.90
2017-11-18T23:48:20.404Z,4.40
2017-11-18T23:50:52.971Z,3.50
2017-11-18T23:53:29.478Z,3.53
2017-11-18T23:56:02.229Z,3.83
2017-11-18T23:58:36.410Z,3.90
